createdAt,value
2022-09-18T00:04:02.670Z,25.70
2022-09-18T00:09:00.038Z,29.40
2022-09-18T00:13:56.748Z,31.77
2022-09-18T00:18:53.525Z,31.20
2022-09-18T00:23:50.242Z,37.17
2022-09-18T00:28:46.720Z,36.72
2022-09-18T00:33:43.117Z,37.85
2022-09-18T00:38:39.763Z,31.45
2022-09-18T00:43:36.646Z,22.88
2022-09-18T00:48:51.670Z,28.77
2022-09-18T00:53:51.620Z,22.63
2022-09-18T00:58:47.832Z,22.40
2022-09-18T01:03:44.094Z,23.55
2022-09-18T01:09:02.621Z,24.13
2022-09-18T01:14:04.756Z,20.58
2022-09-18T01:19:19.558Z,17.90
2022-09-18T01:24:18.799Z,19.42
2022-09-18T01:29:21.142Z,21.83
2022-09-18T01:34:17.318Z,20.52
2022-09-18T01:39:20.815Z,19.45
2022-09-18T01:44:20.251Z,17.80
2022-09-18T01:49:19.045Z,16.42
2022-09-18T01:54:16.840Z,16.42
2022-09-18T01:59:16.320Z,16.85
2022-09-18T02:04:15.873Z,17.48
2022-09-18T02:09:12.841Z,17.42
2022-09-18T02:14:12.927Z,17.63
2022-09-18T02:19:20.156Z,18.75
2022-09-18T02:24:18.668Z,21.35
2022-09-18T02:29:15.628Z,22.17
2022-09-18T02:34:13.340Z,23.55
2022-09-18T02:39:28.526Z,24.33
2022-09-18T02:44:27.858Z,26.10
2022-09-18T02:49:27.124Z,27.65
2022-09-18T02:54:23.284Z,27.35
2022-09-18T02:59:28.653Z,24.95
2022-09-18T03:04:26.174Z,24.70
2022-09-18T03:09:22.654Z,24.13
2022-09-18T03:14:18.892Z,23.50
2022-09-18T03:19:15.205Z,20.85
2022-09-18T03:24:12.032Z,19.30
2022-09-18T03:29:09.040Z,22.83
2022-09-18T03:34:05.837Z,25.10
2022-09-18T03:39:02.152Z,26.58
2022-09-18T03:43:58.446Z,32.42
2022-09-18T03:48:54.719Z,29.52
2022-09-18T03:53:51.167Z,35.05
2022-09-18T03:58:47.419Z,35.65
2022-09-18T04:03:43.710Z,34.80
2022-09-18T04:08:39.911Z,35.97
2022-09-18T04:13:36.147Z,38.20
2022-09-18T04:18:32.368Z,40.60
2022-09-18T04:23:28.676Z,43.08
2022-09-18T04:28:24.962Z,44.20
2022-09-18T04:33:21.220Z,44.63
2022-09-18T04:38:17.453Z,46.47
2022-09-18T04:43:13.723Z,48.42
2022-09-18T04:48:09.907Z,53.67
2022-09-18T04:53:06.231Z,57.35
2022-09-18T04:58:02.489Z,59.75
2022-09-18T05:02:58.753Z,61.45
2022-09-18T05:07:57.671Z,64.82
2022-09-18T05:12:54.071Z,66.50
2022-09-18T05:17:57.685Z,63.67
2022-09-18T05:22:53.928Z,69.78
2022-09-18T05:27:54.014Z,70.53
2022-09-18T05:33:00.668Z,74.78
2022-09-18T05:37:57.070Z,71.93
2022-09-18T05:42:53.258Z,68.00
2022-09-18T05:47:57.374Z,69.40
2022-09-18T05:52:57.891Z,75.15
2022-09-18T05:57:57.852Z,75.53
2022-09-18T06:03:01.661Z,78.93
2022-09-18T06:08:01.724Z,81.18
2022-09-18T06:13:01.885Z,73.60
2022-09-18T06:17:58.084Z,74.40
2022-09-18T06:22:54.540Z,78.13
2022-09-18T06:27:54.495Z,81.93
2022-09-18T06:32:50.687Z,76.85
2022-09-18T06:37:46.909Z,84.10
2022-09-18T06:42:46.064Z,81.47
2022-09-18T06:47:42.575Z,82.38
2022-09-18T06:52:38.780Z,77.60
2022-09-18T06:57:34.983Z,75.35
2022-09-18T07:02:31.448Z,74.47
2022-09-18T07:07:27.678Z,71.15
2022-09-18T07:12:23.875Z,77.97
2022-09-18T07:17:23.223Z,73.72
2022-09-18T07:22:22.338Z,77.68
2022-09-18T07:27:18.512Z,72.65
2022-09-18T07:32:15.502Z,75.85
2022-09-18T07:37:11.680Z,74.97
2022-09-18T07:42:09.041Z,72.00
2022-09-18T07:47:05.746Z,81.68
2022-09-18T07:52:01.978Z,80.57
2022-09-18T07:56:58.202Z,85.88
2022-09-18T08:01:55.753Z,80.32
2022-09-18T08:06:53.143Z,81.20
2022-09-18T08:11:52.543Z,74.50
2022-09-18T08:16:48.795Z,60.85
2022-09-18T08:21:44.995Z,56.17
2022-09-18T08:26:41.339Z,59.75
2022-09-18T08:31:37.677Z,57.72
2022-09-18T08:36:33.890Z,52.30
2022-09-18T08:41:30.098Z,39.17
2022-09-18T08:46:38.162Z,40.42
2022-09-18T08:51:57.749Z,50.70
2022-09-18T08:56:55.590Z,60.85
2022-09-18T09:01:57.649Z,63.63
2022-09-18T09:06:53.847Z,65.32
2022-09-18T09:12:03.225Z,71.75
2022-09-18T09:17:03.979Z,15.55
2022-09-18T09:22:13.747Z,15.90
2022-09-18T09:27:24.619Z,15.32
2022-09-18T09:32:20.808Z,11.60
2022-09-18T09:37:19.403Z,14.38
2022-09-18T09:42:15.583Z,11.52
2022-09-18T09:47:30.380Z,13.85
2022-09-18T09:52:28.299Z,13.20
2022-09-18T09:57:30.358Z,15.48
2022-09-18T10:02:36.573Z,13.32
2022-09-18T10:07:45.787Z,13.55
2022-09-18T10:12:48.825Z,14.57
2022-09-18T10:17:46.327Z,15.15
2022-09-18T10:22:42.872Z,17.55
2022-09-18T10:27:39.105Z,13.05
2022-09-18T10:32:36.586Z,14.27
2022-09-18T10:37:32.741Z,11.63
2022-09-18T10:42:30.146Z,10.88
2022-09-18T10:47:27.900Z,12.35
2022-09-18T10:52:37.488Z,14.23
2022-09-18T10:57:37.918Z,26.30
2022-09-18T11:02:38.567Z,43.30
2022-09-18T11:07:34.879Z,53.20
2022-09-18T11:12:31.058Z,59.22
2022-09-18T11:17:29.786Z,90.03
2022-09-18T11:22:42.648Z,116.32
2022-09-18T11:27:46.782Z,74.32
2022-09-18T11:32:44.642Z,57.28
2022-09-18T11:37:45.583Z,23.83
2022-09-18T11:42:43.219Z,17.58
2022-09-18T11:47:42.711Z,20.73
2022-09-18T11:52:42.675Z,14.43
2022-09-18T11:57:40.387Z,9.13
2022-09-18T12:02:40.486Z,17.90
2022-09-18T12:07:42.359Z,19.40
2022-09-18T12:12:43.367Z,30.73
2022-09-18T12:17:39.536Z,33.42
2022-09-18T12:22:44.989Z,27.75
2022-09-18T12:28:07.629Z,20.85
2022-09-18T12:33:22.859Z,17.50
2022-09-18T12:38:27.594Z,15.13
2022-09-18T12:43:43.206Z,17.75
2022-09-18T12:48:58.000Z,18.27
2022-09-18T12:54:09.525Z,12.43
2022-09-18T12:59:26.226Z,16.13
2022-09-18T13:04:24.815Z,16.42
2022-09-18T13:09:26.086Z,20.42
2022-09-18T13:14:28.927Z,22.50
2022-09-18T13:24:33.902Z,11.77
2022-09-18T13:29:51.349Z,10.43
2022-09-18T13:34:59.303Z,12.50
2022-09-18T13:40:09.755Z,15.63
2022-09-18T13:45:16.731Z,15.25
2022-09-18T13:50:16.569Z,14.10
2022-09-18T13:55:12.742Z,16.90
2022-09-18T14:00:35.058Z,20.45
2022-09-18T14:05:33.121Z,21.35
2022-09-18T14:10:38.574Z,26.70
2022-09-18T14:15:34.914Z,33.13
2022-09-18T14:20:31.780Z,34.70
2022-09-18T14:25:45.032Z,51.38
2022-09-18T14:35:49.590Z,55.88
2022-09-18T14:40:49.048Z,63.53
2022-09-18T14:45:48.000Z,66.72
2022-09-18T14:50:44.466Z,55.95
2022-09-18T14:55:41.906Z,60.92
2022-09-18T15:00:38.460Z,30.83
2022-09-18T15:05:34.917Z,35.80
2022-09-18T15:10:36.923Z,38.63
2022-09-18T15:15:33.378Z,40.77
2022-09-18T15:20:30.586Z,28.75
2022-09-18T15:25:31.949Z,20.08
2022-09-18T15:30:28.384Z,21.38
2022-09-18T15:35:26.238Z,26.35
2022-09-18T15:40:27.100Z,26.75
2022-09-18T15:45:23.943Z,33.55
2022-09-18T15:50:20.289Z,34.80
2022-09-18T15:55:17.449Z,33.40
2022-09-18T16:00:16.995Z,36.03
2022-09-18T16:05:14.879Z,33.72
2022-09-18T16:10:29.645Z,28.67
2022-09-18T16:15:25.901Z,25.65
2022-09-18T16:20:22.693Z,21.65
2022-09-18T16:25:20.577Z,17.27
2022-09-18T16:30:16.813Z,17.40
2022-09-18T16:35:14.283Z,21.50
2022-09-18T16:40:26.721Z,20.27
2022-09-18T16:45:24.419Z,20.92
2022-09-18T16:50:20.638Z,22.45
2022-09-18T16:55:17.407Z,23.05
2022-09-18T17:00:13.802Z,27.52
2022-09-18T17:05:10.317Z,32.53
2022-09-18T17:10:06.755Z,36.45
2022-09-18T17:15:02.962Z,37.90
2022-09-18T17:19:59.134Z,39.15
2022-09-18T17:24:55.372Z,45.33
2022-09-18T17:29:52.026Z,46.95
2022-09-18T17:34:48.278Z,48.47
2022-09-18T17:39:45.340Z,46.65
2022-09-18T17:44:41.560Z,48.47
2022-09-18T17:49:37.762Z,51.95
2022-09-18T17:54:35.892Z,50.72
2022-09-18T17:59:32.095Z,49.97
2022-09-18T18:04:29.184Z,52.72
2022-09-18T18:09:25.510Z,56.83
2022-09-18T18:14:24.982Z,56.45
2022-09-18T18:19:21.203Z,64.25
2022-09-18T18:24:18.895Z,70.50
2022-09-18T18:29:16.615Z,68.80
2022-09-18T18:34:13.480Z,72.03
2022-09-18T18:39:12.155Z,74.18
2022-09-18T18:44:09.846Z,80.47
2022-09-18T18:49:11.535Z,77.18
2022-09-18T18:54:07.913Z,83.63
2022-09-18T18:59:05.310Z,87.70
2022-09-18T19:04:04.805Z,85.53
2022-09-18T19:09:01.687Z,88.10
2022-09-18T19:13:59.712Z,82.65
2022-09-18T19:18:58.519Z,83.70
2022-09-18T19:23:56.306Z,86.30
2022-09-18T19:28:53.673Z,88.43
2022-09-18T19:33:50.735Z,90.00
2022-09-18T19:39:13.376Z,89.68
2022-09-18T19:44:12.395Z,89.90
2022-09-18T19:49:14.775Z,89.40
2022-09-18T19:54:11.119Z,95.75
2022-09-18T19:59:07.298Z,91.47
2022-09-18T20:04:03.628Z,97.80
2022-09-18T20:09:00.035Z,94.30
2022-09-18T20:13:56.260Z,96.03
2022-09-18T20:18:52.541Z,96.55
2022-09-18T20:23:48.742Z,91.90
2022-09-18T20:28:45.059Z,95.35
2022-09-18T20:33:41.518Z,98.35
2022-09-18T20:38:39.901Z,94.60
2022-09-18T20:43:38.498Z,98.25
2022-09-18T20:48:35.747Z,103.47
2022-09-18T20:53:32.055Z,90.97
2022-09-18T20:58:28.250Z,100.07
2022-09-18T21:03:24.832Z,95.57
2022-09-18T21:08:21.092Z,93.32
2022-09-18T21:13:17.632Z,96.65
2022-09-18T21:18:16.603Z,100.15
2022-09-18T21:23:31.399Z,95.88
2022-09-18T21:28:27.594Z,91.97
2022-09-18T21:33:23.854Z,90.65
2022-09-18T21:38:20.194Z,82.88
2022-09-18T21:43:17.109Z,82.82
2022-09-18T21:48:13.458Z,88.15
2022-09-18T21:53:09.779Z,85.03
2022-09-18T21:58:06.784Z,81.20
2022-09-18T22:03:02.970Z,79.50
2022-09-18T22:07:59.459Z,80.65
2022-09-18T22:12:55.629Z,81.45
2022-09-18T22:17:51.993Z,82.28
2022-09-18T22:22:48.278Z,84.88
2022-09-18T22:27:44.631Z,88.60
2022-09-18T22:32:41.241Z,89.20
2022-09-18T22:37:37.458Z,88.68
2022-09-18T22:42:33.659Z,88.80
2022-09-18T22:47:29.898Z,88.90
2022-09-18T22:52:26.147Z,91.07
2022-09-18T22:57:22.446Z,95.63
2022-09-18T23:02:19.770Z,93.85
2022-09-18T23:07:16.014Z,95.72
2022-09-18T23:12:12.206Z,89.50
2022-09-18T23:17:08.950Z,95.97
2022-09-18T23:22:05.290Z,98.15
2022-09-18T23:27:01.462Z,96.85
2022-09-18T23:31:57.782Z,92.03
2022-09-18T23:36:54.625Z,95.72
2022-09-18T23:41:51.347Z,96.38
2022-09-18T23:46:47.759Z,101.93
2022-09-18T23:51:46.211Z,97.68
2022-09-18T23:56:42.756Z,98.70
